sensor_id;sensor_type;location;lat;lon;timestamp;P1;durP1;ratioP1;P2;durP2;ratioP2
5042;SDS011;2540;50.928;6.856;2024-01-30T00:01:36;16.73;;;9.13;;
5042;SDS011;2540;50.928;6.856;2024-01-30T00:04:02;14.00;;;8.30;;
5042;SDS011;2540;50.928;6.856;2024-01-30T00:06:27;13.70;;;7.97;;
5042;SDS011;2540;50.928;6.856;2024-01-30T00:08:53;17.20;;;9.30;;
5042;SDS011;2540;50.928;6.856;2024-01-30T00:11:18;17.43;;;9.07;;
5042;SDS011;2540;50.928;6.856;2024-01-30T00:13:43;19.90;;;9.10;;
5042;SDS011;2540;50.928;6.856;2024-01-30T00:16:19;18.20;;;9.13;;
5042;SDS011;2540;50.928;6.856;2024-01-30T00:18:45;13.93;;;8.70;;
5042;SDS011;2540;50.928;6.856;2024-01-30T00:21:10;18.10;;;9.07;;
5042;SDS011;2540;50.928;6.856;2024-01-30T00:23:36;18.47;;;9.30;;
5042;SDS011;2540;50.928;6.856;2024-01-30T00:26:01;18.00;;;9.30;;
5042;SDS011;2540;50.928;6.856;2024-01-30T00:28:27;20.00;;;9.00;;
5042;SDS011;2540;50.928;6.856;2024-01-30T00:30:52;16.43;;;8.83;;
5042;SDS011;2540;50.928;6.856;2024-01-30T00:33:17;23.57;;;9.73;;
5042;SDS011;2540;50.928;6.856;2024-01-30T00:35:43;15.60;;;8.30;;
5042;SDS011;2540;50.928;6.856;2024-01-30T00:38:08;17.03;;;8.37;;
5042;SDS011;2540;50.928;6.856;2024-01-30T00:40:33;16.83;;;10.20;;
5042;SDS011;2540;50.928;6.856;2024-01-30T00:42:59;17.20;;;9.90;;
5042;SDS011;2540;50.928;6.856;2024-01-30T00:45:24;14.37;;;9.13;;
5042;SDS011;2540;50.928;6.856;2024-01-30T00:47:50;17.10;;;7.90;;
5042;SDS011;2540;50.928;6.856;2024-01-30T00:50:15;16.80;;;8.67;;
5042;SDS011;2540;50.928;6.856;2024-01-30T00:52:40;15.20;;;8.73;;
5042;SDS011;2540;50.928;6.856;2024-01-30T00:55:06;15.23;;;8.70;;
5042;SDS011;2540;50.928;6.856;2024-01-30T00:57:32;16.50;;;9.60;;
5042;SDS011;2540;50.928;6.856;2024-01-30T00:59:57;16.63;;;9.70;;
5042;SDS011;2540;50.928;6.856;2024-01-30T01:02:22;15.60;;;9.00;;
5042;SDS011;2540;50.928;6.856;2024-01-30T01:04:48;16.33;;;9.57;;
5042;SDS011;2540;50.928;6.856;2024-01-30T01:07:13;18.37;;;9.57;;
5042;SDS011;2540;50.928;6.856;2024-01-30T01:09:39;15.43;;;9.57;;
5042;SDS011;2540;50.928;6.856;2024-01-30T01:12:04;18.13;;;10.17;;
5042;SDS011;2540;50.928;6.856;2024-01-30T01:14:30;15.30;;;9.33;;
5042;SDS011;2540;50.928;6.856;2024-01-30T01:16:55;18.87;;;9.23;;
5042;SDS011;2540;50.928;6.856;2024-01-30T01:19:21;20.20;;;9.50;;
5042;SDS011;2540;50.928;6.856;2024-01-30T01:21:46;18.47;;;9.40;;
5042;SDS011;2540;50.928;6.856;2024-01-30T01:24:12;20.80;;;9.57;;
5042;SDS011;2540;50.928;6.856;2024-01-30T01:26:37;19.67;;;9.63;;
5042;SDS011;2540;50.928;6.856;2024-01-30T01:29:02;14.63;;;8.80;;
5042;SDS011;2540;50.928;6.856;2024-01-30T01:31:34;15.23;;;9.03;;
5042;SDS011;2540;50.928;6.856;2024-01-30T01:34:00;16.10;;;8.80;;
5042;SDS011;2540;50.928;6.856;2024-01-30T01:36:25;24.63;;;9.67;;
5042;SDS011;2540;50.928;6.856;2024-01-30T01:38:50;14.70;;;8.50;;
5042;SDS011;2540;50.928;6.856;2024-01-30T01:41:16;18.50;;;8.77;;
5042;SDS011;2540;50.928;6.856;2024-01-30T01:43:41;16.90;;;9.53;;
5042;SDS011;2540;50.928;6.856;2024-01-30T01:46:06;18.13;;;9.07;;
5042;SDS011;2540;50.928;6.856;2024-01-30T01:48:32;16.47;;;8.77;;
5042;SDS011;2540;50.928;6.856;2024-01-30T01:50:57;19.33;;;9.10;;
5042;SDS011;2540;50.928;6.856;2024-01-30T01:53:23;16.97;;;8.93;;
5042;SDS011;2540;50.928;6.856;2024-01-30T01:55:48;15.87;;;8.80;;
5042;SDS011;2540;50.928;6.856;2024-01-30T01:58:14;19.70;;;9.83;;
5042;SDS011;2540;50.928;6.856;2024-01-30T02:00:39;18.67;;;8.90;;
5042;SDS011;2540;50.928;6.856;2024-01-30T02:03:06;29.27;;;9.20;;
5042;SDS011;2540;50.928;6.856;2024-01-30T02:05:33;17.27;;;8.90;;
5042;SDS011;2540;50.928;6.856;2024-01-30T02:07:59;19.83;;;9.57;;
5042;SDS011;2540;50.928;6.856;2024-01-30T02:10:24;15.93;;;8.40;;
5042;SDS011;2540;50.928;6.856;2024-01-30T02:12:49;19.90;;;8.73;;
5042;SDS011;2540;50.928;6.856;2024-01-30T02:15:15;22.50;;;9.60;;
5042;SDS011;2540;50.928;6.856;2024-01-30T02:17:40;15.60;;;8.47;;
5042;SDS011;2540;50.928;6.856;2024-01-30T02:20:06;23.03;;;10.87;;
5042;SDS011;2540;50.928;6.856;2024-01-30T02:22:32;16.53;;;8.87;;
5042;SDS011;2540;50.928;6.856;2024-01-30T02:24:59;16.53;;;8.90;;
5042;SDS011;2540;50.928;6.856;2024-01-30T02:27:25;20.27;;;9.20;;
5042;SDS011;2540;50.928;6.856;2024-01-30T02:29:50;20.13;;;9.37;;
5042;SDS011;2540;50.928;6.856;2024-01-30T02:32:16;17.00;;;8.60;;
5042;SDS011;2540;50.928;6.856;2024-01-30T02:34:41;18.70;;;8.80;;
5042;SDS011;2540;50.928;6.856;2024-01-30T02:37:07;15.93;;;9.23;;
5042;SDS011;2540;50.928;6.856;2024-01-30T02:39:32;16.70;;;9.17;;
5042;SDS011;2540;50.928;6.856;2024-01-30T02:41:57;15.43;;;9.17;;
5042;SDS011;2540;50.928;6.856;2024-01-30T02:44:22;16.33;;;8.27;;
5042;SDS011;2540;50.928;6.856;2024-01-30T02:46:48;15.33;;;8.73;;
5042;SDS011;2540;50.928;6.856;2024-01-30T02:49:13;20.57;;;9.50;;
5042;SDS011;2540;50.928;6.856;2024-01-30T02:51:38;19.13;;;10.77;;
5042;SDS011;2540;50.928;6.856;2024-01-30T02:54:04;15.63;;;8.87;;
5042;SDS011;2540;50.928;6.856;2024-01-30T02:56:29;15.90;;;8.40;;
5042;SDS011;2540;50.928;6.856;2024-01-30T02:58:54;17.87;;;8.73;;
5042;SDS011;2540;50.928;6.856;2024-01-30T03:01:20;19.30;;;9.43;;
5042;SDS011;2540;50.928;6.856;2024-01-30T03:03:45;17.63;;;8.70;;
5042;SDS011;2540;50.928;6.856;2024-01-30T03:06:10;15.40;;;9.20;;
5042;SDS011;2540;50.928;6.856;2024-01-30T03:08:35;18.83;;;8.80;;
5042;SDS011;2540;50.928;6.856;2024-01-30T03:11:01;20.93;;;9.10;;
5042;SDS011;2540;50.928;6.856;2024-01-30T03:13:26;18.00;;;9.30;;
5042;SDS011;2540;50.928;6.856;2024-01-30T03:15:52;18.30;;;9.03;;
5042;SDS011;2540;50.928;6.856;2024-01-30T03:18:17;17.20;;;8.70;;
5042;SDS011;2540;50.928;6.856;2024-01-30T03:20:43;21.13;;;9.57;;
5042;SDS011;2540;50.928;6.856;2024-01-30T03:23:08;16.10;;;9.20;;
5042;SDS011;2540;50.928;6.856;2024-01-30T03:25:33;15.20;;;8.63;;
5042;SDS011;2540;50.928;6.856;2024-01-30T03:27:58;28.83;;;7.93;;
5042;SDS011;2540;50.928;6.856;2024-01-30T03:30:24;14.27;;;8.10;;
5042;SDS011;2540;50.928;6.856;2024-01-30T03:32:49;16.00;;;8.67;;
5042;SDS011;2540;50.928;6.856;2024-01-30T03:35:15;16.20;;;7.73;;
5042;SDS011;2540;50.928;6.856;2024-01-30T03:37:40;23.40;;;8.77;;
5042;SDS011;2540;50.928;6.856;2024-01-30T03:40:06;13.57;;;8.33;;
5042;SDS011;2540;50.928;6.856;2024-01-30T03:42:31;16.17;;;8.50;;
5042;SDS011;2540;50.928;6.856;2024-01-30T03:44:57;22.97;;;8.73;;
5042;SDS011;2540;50.928;6.856;2024-01-30T03:47:22;19.83;;;8.63;;
5042;SDS011;2540;50.928;6.856;2024-01-30T03:49:47;14.30;;;8.67;;
5042;SDS011;2540;50.928;6.856;2024-01-30T03:52:13;21.33;;;7.63;;
5042;SDS011;2540;50.928;6.856;2024-01-30T03:54:38;12.57;;;8.43;;
5042;SDS011;2540;50.928;6.856;2024-01-30T03:57:03;19.87;;;8.77;;
5042;SDS011;2540;50.928;6.856;2024-01-30T03:59:29;18.90;;;8.80;;
5042;SDS011;2540;50.928;6.856;2024-01-30T04:01:54;15.90;;;8.37;;
5042;SDS011;2540;50.928;6.856;2024-01-30T04:04:19;16.00;;;9.00;;
5042;SDS011;2540;50.928;6.856;2024-01-30T04:06:45;13.13;;;7.77;;
5042;SDS011;2540;50.928;6.856;2024-01-30T04:09:11;17.03;;;8.67;;
5042;SDS011;2540;50.928;6.856;2024-01-30T04:11:36;14.97;;;9.20;;
5042;SDS011;2540;50.928;6.856;2024-01-30T04:14:01;17.93;;;9.33;;
5042;SDS011;2540;50.928;6.856;2024-01-30T04:16:27;17.40;;;9.50;;
5042;SDS011;2540;50.928;6.856;2024-01-30T04:18:52;21.43;;;9.60;;
5042;SDS011;2540;50.928;6.856;2024-01-30T04:21:17;17.30;;;9.50;;
5042;SDS011;2540;50.928;6.856;2024-01-30T04:23:43;17.87;;;9.57;;
5042;SDS011;2540;50.928;6.856;2024-01-30T04:26:08;17.67;;;9.60;;
5042;SDS011;2540;50.928;6.856;2024-01-30T04:28:33;17.23;;;8.73;;
5042;SDS011;2540;50.928;6.856;2024-01-30T04:30:59;13.57;;;8.60;;
5042;SDS011;2540;50.928;6.856;2024-01-30T04:33:24;15.77;;;8.87;;
5042;SDS011;2540;50.928;6.856;2024-01-30T04:35:49;18.13;;;9.50;;
5042;SDS011;2540;50.928;6.856;2024-01-30T04:38:15;21.60;;;8.87;;
5042;SDS011;2540;50.928;6.856;2024-01-30T04:40:40;13.80;;;7.87;;
5042;SDS011;2540;50.928;6.856;2024-01-30T04:43:06;16.63;;;8.57;;
5042;SDS011;2540;50.928;6.856;2024-01-30T04:45:31;17.43;;;8.90;;
5042;SDS011;2540;50.928;6.856;2024-01-30T04:47:56;19.50;;;7.77;;
5042;SDS011;2540;50.928;6.856;2024-01-30T04:50:22;17.20;;;9.23;;
5042;SDS011;2540;50.928;6.856;2024-01-30T04:52:48;12.00;;;7.57;;
5042;SDS011;2540;50.928;6.856;2024-01-30T04:55:13;20.97;;;8.87;;
5042;SDS011;2540;50.928;6.856;2024-01-30T04:57:38;19.90;;;8.47;;
5042;SDS011;2540;50.928;6.856;2024-01-30T05:00:04;16.50;;;7.77;;
5042;SDS011;2540;50.928;6.856;2024-01-30T05:02:30;17.17;;;8.60;;
5042;SDS011;2540;50.928;6.856;2024-01-30T05:04:55;13.90;;;8.07;;
5042;SDS011;2540;50.928;6.856;2024-01-30T05:07:21;14.40;;;7.07;;
5042;SDS011;2540;50.928;6.856;2024-01-30T05:09:46;17.27;;;8.10;;
5042;SDS011;2540;50.928;6.856;2024-01-30T05:12:12;17.87;;;8.20;;
5042;SDS011;2540;50.928;6.856;2024-01-30T05:14:37;14.13;;;7.63;;
5042;SDS011;2540;50.928;6.856;2024-01-30T05:17:03;12.20;;;6.70;;
5042;SDS011;2540;50.928;6.856;2024-01-30T05:19:28;17.80;;;8.10;;
5042;SDS011;2540;50.928;6.856;2024-01-30T05:21:54;15.97;;;8.37;;
5042;SDS011;2540;50.928;6.856;2024-01-30T05:24:19;13.83;;;7.13;;
5042;SDS011;2540;50.928;6.856;2024-01-30T05:26:45;12.73;;;7.37;;
5042;SDS011;2540;50.928;6.856;2024-01-30T05:29:10;17.70;;;8.80;;
5042;SDS011;2540;50.928;6.856;2024-01-30T05:31:36;13.73;;;7.33;;
5042;SDS011;2540;50.928;6.856;2024-01-30T05:34:01;17.50;;;7.30;;
5042;SDS011;2540;50.928;6.856;2024-01-30T05:36:26;16.80;;;7.50;;
5042;SDS011;2540;50.928;6.856;2024-01-30T05:38:52;12.37;;;7.23;;
5042;SDS011;2540;50.928;6.856;2024-01-30T05:41:17;11.50;;;6.90;;
5042;SDS011;2540;50.928;6.856;2024-01-30T05:43:43;11.73;;;7.07;;
5042;SDS011;2540;50.928;6.856;2024-01-30T05:46:08;14.90;;;6.83;;
5042;SDS011;2540;50.928;6.856;2024-01-30T05:48:34;16.83;;;7.20;;
5042;SDS011;2540;50.928;6.856;2024-01-30T05:51:00;15.37;;;7.10;;
5042;SDS011;2540;50.928;6.856;2024-01-30T05:53:26;15.73;;;7.97;;
5042;SDS011;2540;50.928;6.856;2024-01-30T05:55:51;12.70;;;7.63;;
5042;SDS011;2540;50.928;6.856;2024-01-30T05:58:17;13.53;;;8.37;;
5042;SDS011;2540;50.928;6.856;2024-01-30T06:00:42;15.37;;;7.60;;
5042;SDS011;2540;50.928;6.856;2024-01-30T06:03:07;14.30;;;7.50;;
5042;SDS011;2540;50.928;6.856;2024-01-30T06:05:33;15.53;;;7.43;;
5042;SDS011;2540;50.928;6.856;2024-01-30T06:07:58;12.73;;;6.57;;
5042;SDS011;2540;50.928;6.856;2024-01-30T06:10:23;14.80;;;9.03;;
5042;SDS011;2540;50.928;6.856;2024-01-30T06:12:49;19.67;;;8.60;;
5042;SDS011;2540;50.928;6.856;2024-01-30T06:15:14;15.47;;;8.13;;
5042;SDS011;2540;50.928;6.856;2024-01-30T06:17:40;12.27;;;7.60;;
5042;SDS011;2540;50.928;6.856;2024-01-30T06:20:06;16.33;;;8.17;;
5042;SDS011;2540;50.928;6.856;2024-01-30T06:22:31;22.63;;;8.30;;
5042;SDS011;2540;50.928;6.856;2024-01-30T06:24:57;14.97;;;7.20;;
5042;SDS011;2540;50.928;6.856;2024-01-30T06:27:22;19.10;;;7.77;;
5042;SDS011;2540;50.928;6.856;2024-01-30T06:29:47;12.63;;;7.17;;
5042;SDS011;2540;50.928;6.856;2024-01-30T06:32:13;15.57;;;7.20;;
5042;SDS011;2540;50.928;6.856;2024-01-30T06:34:38;16.23;;;6.43;;
5042;SDS011;2540;50.928;6.856;2024-01-30T06:37:05;14.23;;;7.33;;
5042;SDS011;2540;50.928;6.856;2024-01-30T06:39:30;13.17;;;7.43;;
5042;SDS011;2540;50.928;6.856;2024-01-30T06:41:55;9.73;;;6.30;;
5042;SDS011;2540;50.928;6.856;2024-01-30T06:44:21;20.80;;;7.93;;
5042;SDS011;2540;50.928;6.856;2024-01-30T06:46:47;14.00;;;7.23;;
5042;SDS011;2540;50.928;6.856;2024-01-30T06:49:12;15.90;;;7.83;;
5042;SDS011;2540;50.928;6.856;2024-01-30T06:51:38;17.37;;;7.60;;
5042;SDS011;2540;50.928;6.856;2024-01-30T06:54:03;12.00;;;7.10;;
5042;SDS011;2540;50.928;6.856;2024-01-30T06:56:29;19.27;;;8.33;;
5042;SDS011;2540;50.928;6.856;2024-01-30T06:58:54;12.07;;;7.47;;
5042;SDS011;2540;50.928;6.856;2024-01-30T07:01:20;13.00;;;7.67;;
5042;SDS011;2540;50.928;6.856;2024-01-30T07:03:45;13.33;;;6.97;;
5042;SDS011;2540;50.928;6.856;2024-01-30T07:06:11;14.57;;;7.73;;
5042;SDS011;2540;50.928;6.856;2024-01-30T07:08:37;13.43;;;7.10;;
5042;SDS011;2540;50.928;6.856;2024-01-30T07:11:05;13.53;;;7.07;;
5042;SDS011;2540;50.928;6.856;2024-01-30T07:13:31;11.33;;;6.97;;
5042;SDS011;2540;50.928;6.856;2024-01-30T07:15:56;15.00;;;8.23;;
5042;SDS011;2540;50.928;6.856;2024-01-30T07:18:22;15.10;;;8.10;;
5042;SDS011;2540;50.928;6.856;2024-01-30T07:20:47;16.37;;;8.13;;
5042;SDS011;2540;50.928;6.856;2024-01-30T07:23:14;17.30;;;8.53;;
5042;SDS011;2540;50.928;6.856;2024-01-30T07:25:41;21.33;;;8.27;;
5042;SDS011;2540;50.928;6.856;2024-01-30T07:28:07;20.50;;;8.83;;
5042;SDS011;2540;50.928;6.856;2024-01-30T07:30:35;19.83;;;8.20;;
5042;SDS011;2540;50.928;6.856;2024-01-30T07:33:00;19.83;;;8.93;;
5042;SDS011;2540;50.928;6.856;2024-01-30T07:35:25;18.13;;;7.40;;
5042;SDS011;2540;50.928;6.856;2024-01-30T07:37:51;15.27;;;7.43;;
5042;SDS011;2540;50.928;6.856;2024-01-30T07:40:17;26.93;;;7.37;;
5042;SDS011;2540;50.928;6.856;2024-01-30T07:42:42;18.60;;;7.10;;
5042;SDS011;2540;50.928;6.856;2024-01-30T07:45:08;16.40;;;7.50;;
5042;SDS011;2540;50.928;6.856;2024-01-30T07:47:34;15.20;;;7.40;;
5042;SDS011;2540;50.928;6.856;2024-01-30T07:49:59;16.43;;;8.60;;
5042;SDS011;2540;50.928;6.856;2024-01-30T07:52:24;13.50;;;6.93;;
5042;SDS011;2540;50.928;6.856;2024-01-30T07:54:50;12.43;;;7.27;;
5042;SDS011;2540;50.928;6.856;2024-01-30T07:57:16;18.40;;;7.80;;
5042;SDS011;2540;50.928;6.856;2024-01-30T07:59:42;14.87;;;8.20;;
5042;SDS011;2540;50.928;6.856;2024-01-30T08:02:14;13.87;;;7.80;;
5042;SDS011;2540;50.928;6.856;2024-01-30T08:04:39;14.87;;;8.23;;
5042;SDS011;2540;50.928;6.856;2024-01-30T08:07:05;16.73;;;7.70;;
5042;SDS011;2540;50.928;6.856;2024-01-30T08:09:30;14.77;;;8.30;;
5042;SDS011;2540;50.928;6.856;2024-01-30T08:11:56;19.30;;;9.40;;
5042;SDS011;2540;50.928;6.856;2024-01-30T08:14:21;15.83;;;8.90;;
5042;SDS011;2540;50.928;6.856;2024-01-30T08:16:47;16.40;;;8.67;;
5042;SDS011;2540;50.928;6.856;2024-01-30T08:19:12;18.63;;;9.33;;
5042;SDS011;2540;50.928;6.856;2024-01-30T08:21:39;19.20;;;8.53;;
5042;SDS011;2540;50.928;6.856;2024-01-30T08:24:04;18.60;;;9.87;;
5042;SDS011;2540;50.928;6.856;2024-01-30T08:26:34;21.70;;;8.70;;
5042;SDS011;2540;50.928;6.856;2024-01-30T08:29:00;16.93;;;9.37;;
5042;SDS011;2540;50.928;6.856;2024-01-30T08:31:26;19.03;;;8.13;;
5042;SDS011;2540;50.928;6.856;2024-01-30T08:33:51;28.20;;;9.17;;
5042;SDS011;2540;50.928;6.856;2024-01-30T08:36:17;22.17;;;8.90;;
5042;SDS011;2540;50.928;6.856;2024-01-30T08:38:42;17.30;;;8.20;;
5042;SDS011;2540;50.928;6.856;2024-01-30T08:41:08;25.70;;;9.47;;
5042;SDS011;2540;50.928;6.856;2024-01-30T08:43:33;16.70;;;8.50;;
5042;SDS011;2540;50.928;6.856;2024-01-30T08:45:59;16.60;;;9.07;;
5042;SDS011;2540;50.928;6.856;2024-01-30T08:48:25;24.37;;;8.93;;
5042;SDS011;2540;50.928;6.856;2024-01-30T08:50:51;14.40;;;8.37;;
5042;SDS011;2540;50.928;6.856;2024-01-30T08:53:16;14.23;;;8.47;;
5042;SDS011;2540;50.928;6.856;2024-01-30T08:55:41;17.43;;;8.27;;
5042;SDS011;2540;50.928;6.856;2024-01-30T08:58:07;15.07;;;8.30;;
5042;SDS011;2540;50.928;6.856;2024-01-30T09:00:32;17.77;;;8.20;;
5042;SDS011;2540;50.928;6.856;2024-01-30T09:02:58;20.60;;;8.23;;
5042;SDS011;2540;50.928;6.856;2024-01-30T09:05:23;21.97;;;9.00;;
5042;SDS011;2540;50.928;6.856;2024-01-30T09:07:49;16.13;;;9.33;;
5042;SDS011;2540;50.928;6.856;2024-01-30T09:10:14;16.80;;;8.80;;
5042;SDS011;2540;50.928;6.856;2024-01-30T09:12:39;15.03;;;8.77;;
5042;SDS011;2540;50.928;6.856;2024-01-30T09:15:05;18.00;;;8.37;;
5042;SDS011;2540;50.928;6.856;2024-01-30T09:17:30;12.90;;;7.10;;
5042;SDS011;2540;50.928;6.856;2024-01-30T09:19:56;15.70;;;8.10;;
5042;SDS011;2540;50.928;6.856;2024-01-30T09:22:21;13.30;;;7.40;;
5042;SDS011;2540;50.928;6.856;2024-01-30T09:24:46;14.60;;;8.07;;
5042;SDS011;2540;50.928;6.856;2024-01-30T09:27:12;12.20;;;7.50;;
5042;SDS011;2540;50.928;6.856;2024-01-30T09:29:37;26.27;;;8.73;;
5042;SDS011;2540;50.928;6.856;2024-01-30T09:32:03;21.40;;;8.00;;
5042;SDS011;2540;50.928;6.856;2024-01-30T09:34:29;14.10;;;8.00;;
5042;SDS011;2540;50.928;6.856;2024-01-30T09:36:54;14.57;;;8.23;;
5042;SDS011;2540;50.928;6.856;2024-01-30T09:39:20;15.13;;;8.27;;
5042;SDS011;2540;50.928;6.856;2024-01-30T09:41:48;15.60;;;7.87;;
5042;SDS011;2540;50.928;6.856;2024-01-30T09:44:18;17.43;;;7.13;;
5042;SDS011;2540;50.928;6.856;2024-01-30T09:46:45;12.17;;;7.30;;
5042;SDS011;2540;50.928;6.856;2024-01-30T09:49:12;13.33;;;7.17;;
5042;SDS011;2540;50.928;6.856;2024-01-30T09:51:39;18.50;;;7.37;;
5042;SDS011;2540;50.928;6.856;2024-01-30T09:54:04;14.70;;;7.70;;
5042;SDS011;2540;50.928;6.856;2024-01-30T09:56:32;15.60;;;7.67;;
5042;SDS011;2540;50.928;6.856;2024-01-30T09:58:57;13.50;;;7.07;;
5042;SDS011;2540;50.928;6.856;2024-01-30T10:01:23;13.20;;;7.03;;
5042;SDS011;2540;50.928;6.856;2024-01-30T10:03:50;15.10;;;7.73;;
5042;SDS011;2540;50.928;6.856;2024-01-30T10:06:17;14.60;;;6.83;;
5042;SDS011;2540;50.928;6.856;2024-01-30T10:08:43;18.10;;;7.43;;
5042;SDS011;2540;50.928;6.856;2024-01-30T10:11:09;13.50;;;7.13;;
5042;SDS011;2540;50.928;6.856;2024-01-30T10:13:34;16.77;;;6.93;;
5042;SDS011;2540;50.928;6.856;2024-01-30T10:16:00;15.10;;;8.10;;
5042;SDS011;2540;50.928;6.856;2024-01-30T10:18:27;12.60;;;7.53;;
5042;SDS011;2540;50.928;6.856;2024-01-30T10:20:53;25.30;;;8.80;;
5042;SDS011;2540;50.928;6.856;2024-01-30T10:23:18;12.73;;;7.90;;
5042;SDS011;2540;50.928;6.856;2024-01-30T10:25:45;34.13;;;12.87;;
5042;SDS011;2540;50.928;6.856;2024-01-30T10:28:10;14.20;;;7.80;;
5042;SDS011;2540;50.928;6.856;2024-01-30T10:30:36;27.80;;;13.83;;
5042;SDS011;2540;50.928;6.856;2024-01-30T10:33:01;17.00;;;9.77;;
5042;SDS011;2540;50.928;6.856;2024-01-30T10:35:27;25.10;;;10.70;;
5042;SDS011;2540;50.928;6.856;2024-01-30T10:37:52;14.17;;;8.13;;
5042;SDS011;2540;50.928;6.856;2024-01-30T10:40:21;14.33;;;8.37;;
5042;SDS011;2540;50.928;6.856;2024-01-30T10:42:51;14.97;;;6.50;;
5042;SDS011;2540;50.928;6.856;2024-01-30T10:45:20;13.53;;;7.23;;
5042;SDS011;2540;50.928;6.856;2024-01-30T10:47:50;15.80;;;6.90;;
5042;SDS011;2540;50.928;6.856;2024-01-30T10:50:16;11.50;;;6.57;;
5042;SDS011;2540;50.928;6.856;2024-01-30T10:52:41;15.93;;;7.70;;
5042;SDS011;2540;50.928;6.856;2024-01-30T10:55:07;14.23;;;7.77;;
5042;SDS011;2540;50.928;6.856;2024-01-30T10:57:33;16.00;;;7.70;;
5042;SDS011;2540;50.928;6.856;2024-01-30T10:59:59;23.00;;;8.37;;
5042;SDS011;2540;50.928;6.856;2024-01-30T11:02:25;15.60;;;8.10;;
5042;SDS011;2540;50.928;6.856;2024-01-30T11:04:55;19.67;;;7.70;;
5042;SDS011;2540;50.928;6.856;2024-01-30T11:07:25;14.90;;;6.77;;
5042;SDS011;2540;50.928;6.856;2024-01-30T11:12:23;15.03;;;7.90;;
5042;SDS011;2540;50.928;6.856;2024-01-30T11:14:50;20.43;;;7.97;;
5042;SDS011;2540;50.928;6.856;2024-01-30T11:17:39;16.03;;;7.17;;
5042;SDS011;2540;50.928;6.856;2024-01-30T11:22:41;20.73;;;6.53;;
5042;SDS011;2540;50.928;6.856;2024-01-30T11:25:32;17.60;;;6.67;;
5042;SDS011;2540;50.928;6.856;2024-01-30T11:27:58;23.43;;;7.00;;
5042;SDS011;2540;50.928;6.856;2024-01-30T11:30:24;16.30;;;7.57;;
5042;SDS011;2540;50.928;6.856;2024-01-30T11:35:32;18.90;;;6.63;;
5042;SDS011;2540;50.928;6.856;2024-01-30T11:37:59;12.87;;;7.27;;
5042;SDS011;2540;50.928;6.856;2024-01-30T11:40:26;15.40;;;6.57;;
5042;SDS011;2540;50.928;6.856;2024-01-30T11:42:53;14.40;;;6.50;;
5042;SDS011;2540;50.928;6.856;2024-01-30T11:45:18;10.37;;;5.97;;
5042;SDS011;2540;50.928;6.856;2024-01-30T11:47:43;17.00;;;6.43;;
5042;SDS011;2540;50.928;6.856;2024-01-30T11:50:09;15.83;;;6.33;;
5042;SDS011;2540;50.928;6.856;2024-01-30T11:52:35;12.50;;;6.30;;
5042;SDS011;2540;50.928;6.856;2024-01-30T11:55:01;13.57;;;6.80;;
5042;SDS011;2540;50.928;6.856;2024-01-30T11:57:27;14.63;;;7.00;;
5042;SDS011;2540;50.928;6.856;2024-01-30T11:59:53;14.50;;;7.20;;
5042;SDS011;2540;50.928;6.856;2024-01-30T12:02:18;13.93;;;7.00;;
5042;SDS011;2540;50.928;6.856;2024-01-30T12:04:44;16.50;;;7.03;;
5042;SDS011;2540;50.928;6.856;2024-01-30T12:07:09;16.30;;;6.77;;
5042;SDS011;2540;50.928;6.856;2024-01-30T12:09:35;11.47;;;5.93;;
5042;SDS011;2540;50.928;6.856;2024-01-30T12:12:00;15.27;;;6.87;;
5042;SDS011;2540;50.928;6.856;2024-01-30T12:14:25;12.50;;;6.03;;
5042;SDS011;2540;50.928;6.856;2024-01-30T12:16:51;20.30;;;6.50;;
5042;SDS011;2540;50.928;6.856;2024-01-30T12:19:23;12.40;;;6.27;;
5042;SDS011;2540;50.928;6.856;2024-01-30T12:21:58;15.37;;;6.80;;
5042;SDS011;2540;50.928;6.856;2024-01-30T12:24:29;16.33;;;6.67;;
5042;SDS011;2540;50.928;6.856;2024-01-30T12:26:57;14.67;;;6.80;;
5042;SDS011;2540;50.928;6.856;2024-01-30T12:29:23;20.50;;;7.47;;
5042;SDS011;2540;50.928;6.856;2024-01-30T12:31:49;19.47;;;7.03;;
5042;SDS011;2540;50.928;6.856;2024-01-30T12:34:18;14.63;;;6.23;;
5042;SDS011;2540;50.928;6.856;2024-01-30T12:36:45;16.23;;;6.73;;
5042;SDS011;2540;50.928;6.856;2024-01-30T12:39:12;13.00;;;6.33;;
5042;SDS011;2540;50.928;6.856;2024-01-30T12:41:39;11.33;;;5.47;;
5042;SDS011;2540;50.928;6.856;2024-01-30T12:44:05;14.60;;;6.90;;
5042;SDS011;2540;50.928;6.856;2024-01-30T12:46:30;18.00;;;7.33;;
5042;SDS011;2540;50.928;6.856;2024-01-30T12:48:55;12.60;;;6.73;;
5042;SDS011;2540;50.928;6.856;2024-01-30T12:51:21;15.53;;;6.40;;
5042;SDS011;2540;50.928;6.856;2024-01-30T12:53:46;13.60;;;6.03;;
5042;SDS011;2540;50.928;6.856;2024-01-30T12:56:13;17.70;;;6.80;;
5042;SDS011;2540;50.928;6.856;2024-01-30T12:58:39;12.17;;;6.87;;
5042;SDS011;2540;50.928;6.856;2024-01-30T13:01:04;19.50;;;5.67;;
5042;SDS011;2540;50.928;6.856;2024-01-30T13:03:30;12.73;;;6.70;;
5042;SDS011;2540;50.928;6.856;2024-01-30T13:09:19;13.00;;;4.97;;
5042;SDS011;2540;50.928;6.856;2024-01-30T13:11:45;10.60;;;4.47;;
5042;SDS011;2540;50.928;6.856;2024-01-30T13:14:10;16.43;;;4.40;;
5042;SDS011;2540;50.928;6.856;2024-01-30T13:16:35;10.97;;;3.80;;
5042;SDS011;2540;50.928;6.856;2024-01-30T13:19:01;9.70;;;3.80;;
5042;SDS011;2540;50.928;6.856;2024-01-30T13:21:27;10.33;;;3.70;;
5042;SDS011;2540;50.928;6.856;2024-01-30T13:23:52;8.23;;;3.60;;
5042;SDS011;2540;50.928;6.856;2024-01-30T13:26:19;5.70;;;3.43;;
5042;SDS011;2540;50.928;6.856;2024-01-30T13:28:45;11.10;;;3.90;;
5042;SDS011;2540;50.928;6.856;2024-01-30T13:31:10;7.03;;;3.20;;
5042;SDS011;2540;50.928;6.856;2024-01-30T13:33:36;14.90;;;3.70;;
5042;SDS011;2540;50.928;6.856;2024-01-30T13:36:02;6.90;;;3.60;;
5042;SDS011;2540;50.928;6.856;2024-01-30T13:38:27;12.67;;;3.53;;
5042;SDS011;2540;50.928;6.856;2024-01-30T13:40:52;8.07;;;3.57;;
5042;SDS011;2540;50.928;6.856;2024-01-30T13:43:18;10.43;;;3.93;;
5042;SDS011;2540;50.928;6.856;2024-01-30T13:45:43;8.40;;;3.40;;
5042;SDS011;2540;50.928;6.856;2024-01-30T13:48:09;10.70;;;4.23;;
5042;SDS011;2540;50.928;6.856;2024-01-30T13:50:34;7.57;;;4.40;;
5042;SDS011;2540;50.928;6.856;2024-01-30T13:52:59;13.40;;;5.40;;
5042;SDS011;2540;50.928;6.856;2024-01-30T13:55:25;8.57;;;4.60;;
5042;SDS011;2540;50.928;6.856;2024-01-30T13:57:50;10.50;;;3.60;;
5042;SDS011;2540;50.928;6.856;2024-01-30T14:00:16;7.97;;;4.40;;
5042;SDS011;2540;50.928;6.856;2024-01-30T14:02:41;8.73;;;3.97;;
5042;SDS011;2540;50.928;6.856;2024-01-30T14:05:07;15.63;;;4.30;;
5042;SDS011;2540;50.928;6.856;2024-01-30T14:07:33;15.20;;;3.70;;
5042;SDS011;2540;50.928;6.856;2024-01-30T14:09:58;7.10;;;3.40;;
5042;SDS011;2540;50.928;6.856;2024-01-30T14:12:23;5.43;;;3.77;;
5042;SDS011;2540;50.928;6.856;2024-01-30T14:14:49;10.10;;;3.70;;
5042;SDS011;2540;50.928;6.856;2024-01-30T14:17:14;9.93;;;4.30;;
5042;SDS011;2540;50.928;6.856;2024-01-30T14:19:39;9.17;;;3.80;;
5042;SDS011;2540;50.928;6.856;2024-01-30T14:22:04;9.00;;;4.10;;
5042;SDS011;2540;50.928;6.856;2024-01-30T14:24:31;9.10;;;4.27;;
5042;SDS011;2540;50.928;6.856;2024-01-30T14:26:56;5.30;;;3.67;;
5042;SDS011;2540;50.928;6.856;2024-01-30T14:29:21;6.20;;;3.80;;
5042;SDS011;2540;50.928;6.856;2024-01-30T14:31:46;10.20;;;4.60;;
5042;SDS011;2540;50.928;6.856;2024-01-30T14:34:12;5.87;;;3.70;;
5042;SDS011;2540;50.928;6.856;2024-01-30T14:36:38;7.67;;;4.80;;
5042;SDS011;2540;50.928;6.856;2024-01-30T14:39:03;12.60;;;5.20;;
5042;SDS011;2540;50.928;6.856;2024-01-30T14:41:29;9.77;;;4.50;;
5042;SDS011;2540;50.928;6.856;2024-01-30T14:43:54;9.83;;;4.40;;
5042;SDS011;2540;50.928;6.856;2024-01-30T14:46:20;8.80;;;4.33;;
5042;SDS011;2540;50.928;6.856;2024-01-30T14:48:46;8.20;;;4.00;;
5042;SDS011;2540;50.928;6.856;2024-01-30T14:51:12;11.00;;;5.70;;
5042;SDS011;2540;50.928;6.856;2024-01-30T14:53:37;9.43;;;4.67;;
5042;SDS011;2540;50.928;6.856;2024-01-30T14:56:02;12.90;;;6.87;;
5042;SDS011;2540;50.928;6.856;2024-01-30T14:58:28;10.60;;;5.70;;
5042;SDS011;2540;50.928;6.856;2024-01-30T15:00:54;16.90;;;6.50;;
5042;SDS011;2540;50.928;6.856;2024-01-30T15:03:19;7.20;;;4.30;;
5042;SDS011;2540;50.928;6.856;2024-01-30T15:05:44;10.70;;;5.53;;